KPWK/PWK METAR and TAF weather

Enter ICAO airport designator
Station Type Date Time Source
KPWK METAR 2024/07/12 18:52 UTC NOAA

KPWK 121852Z VRB05KT 10SM CLR 28/18 A3014 RMK AO2 SLP200 T02780183 $


Station Type Date Time Source
KPWK Decoded METAR 2024/07/12 18:52 UTC NOAA

CHICAGO EXECUTIVE AIRPORT, IL, United States (KPWK) 42-07N 087-54W 203M
Jul 12, 2024 - 02:52 PM EDT / 2024.07.12 1852 UTC
Wind: Variable at 6 MPH (5 KT):0
Visibility: 10 mile(s):0
Sky conditions: clear
Temperature: 82.0 F (27.8 C)
Dew Point: 64.9 F (18.3 C)
Relative Humidity: 56%
Pressure (altimeter): 30.14 in. Hg (1020 hPa)
ob: KPWK 121852Z VRB05KT 10SM CLR 28/18 A3014 RMK AO2 SLP200 T02780183
cycle: 19

Station Type Date Time Source
KPWK TAF UTC NOAA

Error!

Example: see airport list